Погода Сапегинона неделю

Смоленская область, Россия

24 - 30 июля
  • 24июля
    Сегодня
    +12°
    +24°
    Небольшая облачность
    ВремяПогодаТемператураВлажностьДавлениеВетер, м/сВероятность осадков
    00:00Практически безоблачно+14°C73 %739 мм0.8 м/с2 %
    03:00Облачно с прояснениями+13°C80 %739 мм0.5 м/с2 %
    06:00Ясно и безоблачно+13°C80 %739 мм0.5 м/с2 %
    09:00Ясно и безоблачно+19°C59 %740 мм1.6 м/с2 %
    12:00Практически безоблачно+23°C42 %739 мм2.3 м/с2 %
    15:00Небольшая облачность+24°C38 %738 мм2.4 м/с2 %
    18:00Ясно и безоблачно+24°C41 %738 мм2.2 м/с2 %
    21:00Ясно и безоблачно+19°C59 %738 мм1.0 м/с2 %
  • 25июля
    Четверг
    +13°
    +27°
    Облачно с прояснениями
    ВремяПогодаТемператураВлажностьДавлениеВетер, м/сВероятность осадков
    00:00Ясно и безоблачно+15°C65 %737 мм0.4 м/с2 %
    03:00Ясно и безоблачно+13°C80 %737 мм0.5 м/с2 %
    06:00Ясно и безоблачно+14°C77 %737 мм0.7 м/с2 %
    09:00Практически безоблачно+21°C58 %737 мм1.7 м/с2 %
    12:00Практически безоблачно+24°C48 %737 мм2.1 м/с4 %
    15:00Облачно с прояснениями+25°C50 %736 мм2.2 м/с21 %
    18:00Небольшая облачность, ливень+24°C78 %737 мм2.1 м/с50 %
    21:00Ясно и безоблачно+19°C92 %736 мм1.3 м/с7 %
  • 26июля
    Пятница
    +12°
    +24°
    Практически безоблачно
    ВремяПогодаТемператураВлажностьДавлениеВетер, м/сВероятность осадков
    00:00Ясно и безоблачно+15°C94 %736 мм0.9 м/с3 %
    03:00Небольшая облачность+13°C97 %736 мм0.5 м/с2 %
    06:00Ясно и безоблачно+14°C97 %737 мм0.7 м/с3 %
    09:00Практически безоблачно+19°C74 %738 мм2.0 м/с2 %
    12:00Ясно и безоблачно+22°C56 %738 мм2.2 м/с23 %
    15:00Практически безоблачно+23°C47 %738 мм2.1 м/с19 %
    18:00Практически безоблачно+24°C46 %738 мм2.0 м/с19 %
    21:00Практически безоблачно+19°C62 %739 мм0.8 м/с3 %
  • 27июля
    Суббота
    +14°
    +24°
    Небольшая облачность
    ВремяПогодаТемператураВлажностьДавлениеВетер, м/сВероятность осадков
    00:00Ясно и безоблачно+15°C66 %740 мм0.7 м/с2 %
    03:00Ясно и безоблачно+13°C73 %740 мм0.6 м/с2 %
    06:00Небольшая облачность+14°C87 %740 мм0.5 м/с2 %
    09:00Практически безоблачно+20°C59 %741 мм1.7 м/с2 %
    12:00Практически безоблачно+23°C55 %741 мм2.2 м/с10 %
    15:00Небольшая облачность+23°C47 %741 мм1.9 м/с33 %
    18:00Небольшая облачность и лёгкий дождик+23°C47 %741 мм2.4 м/с53 %
    21:00Ясно и безоблачно+20°C64 %741 мм1.1 м/с16 %
  • 28июля
    Воскресенье
    +16°
    +26°
    Облачно с прояснениями
    ВремяПогодаТемператураВлажностьДавлениеВетер, м/сВероятность осадков
    00:00Небольшая облачность+16°C70 %740 мм1.1 м/с2 %
    03:00Ясно и безоблачно+15°C81 %740 мм0.9 м/с2 %
    06:00Облачно с прояснениями+15°C83 %740 мм0.9 м/с2 %
    09:00Облачно с прояснениями+20°C66 %741 мм1.7 м/с3 %
    12:00Практически безоблачно+24°C49 %740 мм2.5 м/с22 %
    15:00Облачно с прояснениями+25°C47 %740 мм2.9 м/с31 %
    18:00Облачно с прояснениями+25°C48 %740 мм3.0 м/с31 %
    21:00Облачно с прояснениями+21°C68 %740 мм1.2 м/с24 %
Мы используем cookies
Соглашаюсь